Time;durP1;ratioP1;P1;durP2;ratioP2;P2;SDS_P1;SDS_P2;PMS_P1;PMS_P2;Temp;Humidity;BMP_temperature;BMP_pressure;BME280_temperature;BME280_humidity;BME280_pressure;Samples;Min_cycle;Max_cycle;Signal;HPM_P1;HPM_P2
2022/07/27 00:01:39;;;;;;;0.10;0.10;;;;;;;;;;6218883;23;20019;-90
2022/07/27 00:04:05;;;;;;;0.10;0.10;;;;;;;;;;6218846;23;20456;-90
2022/07/27 00:06:31;;;;;;;0.10;0.10;;;;;;;;;;6194078;23;20008;-90
2022/07/27 00:08:57;;;;;;;0.10;0.10;;;;;;;;;;6218347;23;20052;-90
2022/07/27 00:11:23;;;;;;;0.10;0.10;;;;;;;;;;6193497;23;20085;-90
2022/07/27 00:13:50;;;;;;;0.10;0.10;;;;;;;;;;6218599;23;20152;-90
2022/07/27 00:16:16;;;;;;;0.10;0.10;;;;;;;;;;6218454;23;20012;-90
2022/07/27 00:18:42;;;;;;;0.00;0.00;;;;;;;;;;6190271;23;20008;-90
2022/07/27 00:21:08;;;;;;;0.10;0.10;;;;;;;;;;6188795;23;20075;-90
2022/07/27 00:23:34;;;;;;;0.10;0.10;;;;;;;;;;6163470;23;20019;-89
2022/07/27 00:26:00;;;;;;;0.10;0.10;;;;;;;;;;6164076;23;20009;-90
2022/07/27 00:28:26;;;;;;;0.10;0.10;;;;;;;;;;6188259;23;20068;-90
2022/07/27 00:30:52;;;;;;;0.10;0.10;;;;;;;;;;6163563;23;20299;-90
2022/07/27 00:33:18;;;;;;;0.10;0.10;;;;;;;;;;6188392;23;20234;-90
2022/07/27 00:35:44;;;;;;;0.10;0.10;;;;;;;;;;6163613;23;20013;-90
2022/07/27 00:38:10;;;;;;;1.25;0.20;;;;;;;;;;6163393;23;20013;-89
2022/07/27 00:40:36;;;;;;;0.10;0.10;;;;;;;;;;6188110;23;20485;-90
2022/07/27 00:43:03;;;;;;;0.10;0.10;;;;;;;;;;6163690;23;20067;-90
2022/07/27 00:45:29;;;;;;;0.10;0.10;;;;;;;;;;6163352;23;20017;-89
2022/07/27 00:47:55;;;;;;;0.10;0.10;;;;;;;;;;6163380;23;20013;-90
2022/07/27 00:50:21;;;;;;;0.10;0.10;;;;;;;;;;6188320;23;20012;-90
2022/07/27 00:52:47;;;;;;;0.10;0.10;;;;;;;;;;6188192;23;20013;-90
2022/07/27 00:55:13;;;;;;;0.10;0.10;;;;;;;;;;6163584;23;20485;-90
2022/07/27 00:57:40;;;;;;;0.10;0.10;;;;;;;;;;6163635;23;20016;-91
2022/07/27 01:00:07;;;;;;;0.00;0.00;;;;;;;;;;6188271;23;20044;-90
2022/07/27 01:02:33;;;;;;;0.10;0.10;;;;;;;;;;6188169;23;20497;-91
2022/07/27 01:04:59;;;;;;;0.10;0.10;;;;;;;;;;6188145;23;20055;-91
2022/07/27 01:07:25;;;;;;;0.10;0.10;;;;;;;;;;6188889;23;20035;-91
2022/07/27 01:09:57;;;;;;;0.10;0.10;;;;;;;;;;6163696;23;20031;-91
2022/07/27 01:12:24;;;;;;;0.10;0.10;;;;;;;;;;6163697;23;20028;-92
2022/07/27 01:14:50;;;;;;;0.10;0.10;;;;;;;;;;6188512;23;20019;-90
2022/07/27 01:17:16;;;;;;;0.10;0.10;;;;;;;;;;6163786;23;20318;-92
2022/07/27 01:19:42;;;;;;;0.10;0.10;;;;;;;;;;6179309;23;20052;-92
2022/07/27 01:22:08;;;;;;;0.10;0.10;;;;;;;;;;6194189;23;20024;-91
2022/07/27 01:24:34;;;;;;;0.10;0.10;;;;;;;;;;6219278;23;20020;-91
2022/07/27 01:27:01;;;;;;;0.10;0.10;;;;;;;;;;6194125;23;20008;-91
2022/07/27 01:29:27;;;;;;;0.10;0.10;;;;;;;;;;6194324;23;20012;-91
2022/07/27 01:31:53;;;;;;;0.10;0.10;;;;;;;;;;6193033;23;20183;-89
2022/07/27 01:34:19;;;;;;;0.10;0.10;;;;;;;;;;6192933;23;20047;-89
2022/07/27 01:36:45;;;;;;;0.10;0.10;;;;;;;;;;6193102;23;20023;-89
2022/07/27 01:39:12;;;;;;;0.10;0.10;;;;;;;;;;6192973;23;20037;-89
2022/07/27 01:41:38;;;;;;;0.10;0.10;;;;;;;;;;6192877;23;20012;-89
2022/07/27 01:44:04;;;;;;;0.10;0.10;;;;;;;;;;6193194;23;20016;-89
2022/07/27 01:46:30;;;;;;;0.10;0.10;;;;;;;;;;6192803;23;20500;-89
2022/07/27 01:48:56;;;;;;;0.10;0.10;;;;;;;;;;6192774;23;20012;-89
2022/07/27 01:51:22;;;;;;;0.10;0.10;;;;;;;;;;6192837;23;20008;-89
2022/07/27 01:53:48;;;;;;;0.10;0.10;;;;;;;;;;6193484;23;20091;-89
2022/07/27 01:56:14;;;;;;;0.10;0.10;;;;;;;;;;6195317;23;20445;-89
2022/07/27 01:58:40;;;;;;;0.05;0.05;;;;;;;;;;6194685;23;20031;-88
2022/07/27 02:01:06;;;;;;;0.10;0.10;;;;;;;;;;6194703;23;20012;-89
2022/07/27 02:03:32;;;;;;;0.10;0.10;;;;;;;;;;6194749;23;20338;-89
2022/07/27 02:05:58;;;;;;;0.10;0.10;;;;;;;;;;6195076;23;20326;-89
2022/07/27 02:08:24;;;;;;;0.10;0.10;;;;;;;;;;6194693;23;20090;-89
2022/07/27 02:13:34;;;;;;;0.10;0.10;;;;;;;;;;6198470;23;20020;-89
2022/07/27 02:16:00;;;;;;;0.10;0.10;;;;;;;;;;6194648;23;20341;-89
2022/07/27 02:18:27;;;;;;;0.10;0.10;;;;;;;;;;6194533;23;20023;-89
2022/07/27 02:20:53;;;;;;;0.10;0.10;;;;;;;;;;6164466;23;20023;-90
2022/07/27 02:23:19;;;;;;;0.10;0.10;;;;;;;;;;6165103;23;20017;-90
2022/07/27 02:25:45;;;;;;;0.10;0.10;;;;;;;;;;6164818;23;20116;-90
2022/07/27 02:28:11;;;;;;;0.10;0.10;;;;;;;;;;6189528;23;20097;-90
2022/07/27 02:30:37;;;;;;;0.00;0.00;;;;;;;;;;6164816;23;20408;-90
2022/07/27 02:33:04;;;;;;;0.10;0.10;;;;;;;;;;6164815;23;20079;-89
2022/07/27 02:35:29;;;;;;;0.10;0.10;;;;;;;;;;6164209;23;20446;-89
2022/07/27 02:37:55;;;;;;;0.10;0.10;;;;;;;;;;6164650;23;20104;-89
2022/07/27 02:40:21;;;;;;;0.03;0.03;;;;;;;;;;6189603;23;20066;-89
2022/07/27 02:42:47;;;;;;;0.10;0.10;;;;;;;;;;6190239;23;20017;-90
2022/07/27 02:45:14;;;;;;;0.10;0.10;;;;;;;;;;6164854;23;20095;-90
2022/07/27 02:47:40;;;;;;;0.10;0.10;;;;;;;;;;6190017;23;20071;-91
2022/07/27 02:50:09;;;;;;;0.10;0.10;;;;;;;;;;6190132;23;20012;-92
2022/07/27 02:52:36;;;;;;;0.10;0.10;;;;;;;;;;6165050;23;20013;-91
2022/07/27 02:55:02;;;;;;;0.10;0.10;;;;;;;;;;6164858;23;20013;-91
2022/07/27 02:57:28;;;;;;;0.10;0.10;;;;;;;;;;6189930;23;20013;-91
2022/07/27 02:59:54;;;;;;;0.10;0.10;;;;;;;;;;6190007;23;20143;-90
2022/07/27 03:02:20;;;;;;;0.10;0.10;;;;;;;;;;6189441;23;20497;-89
2022/07/27 03:04:46;;;;;;;0.10;0.10;;;;;;;;;;6189305;23;20102;-91
2022/07/27 03:07:12;;;;;;;0.10;0.10;;;;;;;;;;6189309;23;20012;-93
2022/07/27 03:09:37;;;;;;;0.10;0.10;;;;;;;;;;6164173;23;20009;-90
2022/07/27 03:12:03;;;;;;;0.10;0.10;;;;;;;;;;6165121;23;20509;-91
2022/07/27 03:14:29;;;;;;;0.10;0.10;;;;;;;;;;6164868;23;20023;-90
2022/07/27 03:16:55;;;;;;;0.10;0.10;;;;;;;;;;6189229;23;20009;-89
2022/07/27 03:19:21;;;;;;;0.10;0.10;;;;;;;;;;6200159;23;20082;-89
2022/07/27 03:21:47;;;;;;;0.10;0.10;;;;;;;;;;6219151;23;20014;-89
2022/07/27 03:24:13;;;;;;;0.10;0.10;;;;;;;;;;6218960;23;20016;-89
2022/07/27 03:26:39;;;;;;;0.10;0.10;;;;;;;;;;6219439;23;20520;-89
2022/07/27 03:29:05;;;;;;;0.10;0.10;;;;;;;;;;6194132;23;20008;-89
2022/07/27 03:31:31;;;;;;;0.10;0.10;;;;;;;;;;6193836;23;20019;-89
2022/07/27 03:33:57;;;;;;;0.10;0.10;;;;;;;;;;6194109;23;20437;-89
2022/07/27 03:36:23;;;;;;;0.10;0.10;;;;;;;;;;6193695;23;20034;-87
2022/07/27 03:38:50;;;;;;;0.10;0.10;;;;;;;;;;6218616;23;20012;-88
2022/07/27 03:41:16;;;;;;;0.10;0.10;;;;;;;;;;6218816;23;20016;-88
2022/07/27 03:43:42;;;;;;;0.10;0.10;;;;;;;;;;6218438;23;20008;-90
2022/07/27 03:46:08;;;;;;;0.10;0.10;;;;;;;;;;6193332;23;20008;-89
2022/07/27 03:48:34;;;;;;;0.10;0.10;;;;;;;;;;6218769;23;20315;-90
2022/07/27 03:51:00;;;;;;;0.10;0.10;;;;;;;;;;6194107;23;20443;-90
2022/07/27 03:53:26;;;;;;;0.10;0.10;;;;;;;;;;6194522;23;20012;-91
2022/07/27 03:55:52;;;;;;;0.10;0.10;;;;;;;;;;6194237;23;20070;-91
2022/07/27 03:58:18;;;;;;;0.10;0.10;;;;;;;;;;6219006;23;20019;-91
2022/07/27 04:00:44;;;;;;;0.10;0.10;;;;;;;;;;6194062;23;20065;-90
2022/07/27 04:03:10;;;;;;;0.10;0.10;;;;;;;;;;6193510;23;20436;-89
2022/07/27 04:05:36;;;;;;;0.10;0.10;;;;;;;;;;6193198;23;20048;-89
2022/07/27 04:08:02;;;;;;;0.10;0.10;;;;;;;;;;6193572;22;20012;-90
2022/07/27 04:10:28;;;;;;;0.10;0.10;;;;;;;;;;6218474;23;20008;-88
2022/07/27 04:12:54;;;;;;;0.10;0.10;;;;;;;;;;6193438;23;20087;-88
2022/07/27 04:15:20;;;;;;;0.10;0.10;;;;;;;;;;6218380;23;20016;-89
2022/07/27 04:17:46;;;;;;;0.10;0.10;;;;;;;;;;6218157;22;20449;-89
2022/07/27 04:20:12;;;;;;;0.10;0.10;;;;;;;;;;6196786;23;20028;-91
2022/07/27 04:22:38;;;;;;;0.10;0.10;;;;;;;;;;6188992;23;20016;-90
2022/07/27 04:25:04;;;;;;;0.00;0.00;;;;;;;;;;6188377;23;20359;-90
2022/07/27 04:27:30;;;;;;;0.10;0.10;;;;;;;;;;6188831;23;20012;-91
2022/07/27 04:29:56;;;;;;;0.10;0.10;;;;;;;;;;6163867;23;20096;-90
2022/07/27 04:32:22;;;;;;;0.10;0.10;;;;;;;;;;6189189;23;20047;-90
2022/07/27 04:34:48;;;;;;;0.05;0.05;;;;;;;;;;6163918;23;20019;-91
2022/07/27 04:37:14;;;;;;;0.10;0.10;;;;;;;;;;6163999;23;20020;-91
2022/07/27 04:39:40;;;;;;;0.10;0.10;;;;;;;;;;6188819;23;20023;-92
2022/07/27 04:42:07;;;;;;;0.10;0.10;;;;;;;;;;6164383;23;20012;-93
2022/07/27 04:44:33;;;;;;;0.10;0.10;;;;;;;;;;6164177;23;20021;-91
2022/07/27 04:46:59;;;;;;;0.05;0.05;;;;;;;;;;6165957;23;20055;-89
2022/07/27 04:49:25;;;;;;;0.10;0.10;;;;;;;;;;6163260;23;20016;-88
2022/07/27 04:51:51;;;;;;;0.10;0.10;;;;;;;;;;6187994;23;20532;-90
2022/07/27 04:54:17;;;;;;;0.10;0.10;;;;;;;;;;6163880;23;20035;-92
2022/07/27 04:56:43;;;;;;;0.10;0.10;;;;;;;;;;6165397;23;20083;-91
2022/07/27 04:59:10;;;;;;;0.10;0.10;;;;;;;;;;6163659;23;20346;-91
2022/07/27 05:01:36;;;;;;;0.10;0.10;;;;;;;;;;6188447;23;20017;-91
2022/07/27 05:04:03;;;;;;;0.10;0.10;;;;;;;;;;6163887;23;20019;-91
2022/07/27 05:06:31;;;;;;;0.10;0.10;;;;;;;;;;6188590;23;20102;-90
2022/07/27 05:08:57;;;;;;;0.10;0.10;;;;;;;;;;6163310;23;20012;-90
2022/07/27 05:11:23;;;;;;;0.10;0.10;;;;;;;;;;6163465;23;20020;-91
2022/07/27 05:13:49;;;;;;;0.10;0.10;;;;;;;;;;6164021;23;20048;-90
2022/07/27 05:16:15;;;;;;;0.00;0.00;;;;;;;;;;6188496;23;20092;-91
2022/07/27 05:18:41;;;;;;;0.10;0.10;;;;;;;;;;6189580;23;20008;-90
2022/07/27 05:21:08;;;;;;;0.10;0.10;;;;;;;;;;6192738;23;20395;-89
2022/07/27 05:23:34;;;;;;;0.10;0.10;;;;;;;;;;6217751;23;20008;-91
2022/07/27 05:26:00;;;;;;;0.10;0.10;;;;;;;;;;6193257;23;20043;-90
2022/07/27 05:28:26;;;;;;;0.10;0.10;;;;;;;;;;6193243;23;20449;-90
2022/07/27 05:30:52;;;;;;;0.10;0.10;;;;;;;;;;6220189;23;20043;-90
2022/07/27 05:33:18;;;;;;;0.10;0.10;;;;;;;;;;6195096;23;20008;-90
2022/07/27 05:35:44;;;;;;;0.10;0.10;;;;;;;;;;6194417;23;20012;-92
2022/07/27 05:38:10;;;;;;;0.10;0.10;;;;;;;;;;6194896;23;20175;-90
2022/07/27 05:40:36;;;;;;;0.10;0.10;;;;;;;;;;6219881;23;20014;-90
2022/07/27 05:43:02;;;;;;;0.10;0.10;;;;;;;;;;6219262;23;20016;-89
2022/07/27 05:45:28;;;;;;;0.10;0.10;;;;;;;;;;6194727;23;20016;-90
2022/07/27 05:47:54;;;;;;;0.10;0.10;;;;;;;;;;6194608;22;20468;-91
2022/07/27 05:50:21;;;;;;;0.10;0.10;;;;;;;;;;6194052;23;20512;-90
2022/07/27 05:52:47;;;;;;;0.10;0.10;;;;;;;;;;6194089;23;20036;-90
2022/07/27 05:55:13;;;;;;;0.10;0.10;;;;;;;;;;6194374;23;20062;-90
2022/07/27 05:57:40;;;;;;;0.10;0.10;;;;;;;;;;6194406;23;20016;-90
2022/07/27 06:00:07;;;;;;;0.10;0.10;;;;;;;;;;6219777;23;20016;-90
2022/07/27 06:02:33;;;;;;;0.10;0.10;;;;;;;;;;6194723;23;20023;-90
2022/07/27 06:04:59;;;;;;;0.10;0.10;;;;;;;;;;6194903;23;20012;-90
2022/07/27 06:10:10;;;;;;;0.05;0.05;;;;;;;;;;6219835;23;20016;-91
2022/07/27 06:12:39;;;;;;;0.10;0.10;;;;;;;;;;6220125;23;20011;-92
2022/07/27 06:15:06;;;;;;;0.10;0.10;;;;;;;;;;6195146;23;20070;-92
2022/07/27 06:17:32;;;;;;;0.10;0.10;;;;;;;;;;6219757;23;20012;-88
2022/07/27 06:19:58;;;;;;;0.10;0.10;;;;;;;;;;6193912;23;20039;-89
2022/07/27 06:22:24;;;;;;;0.10;0.10;;;;;;;;;;6194627;23;20016;-86
2022/07/27 06:24:50;;;;;;;0.10;0.10;;;;;;;;;;6219312;23;20090;-88
2022/07/27 06:27:16;;;;;;;0.10;0.10;;;;;;;;;;6194483;23;20333;-88
2022/07/27 06:29:42;;;;;;;0.10;0.10;;;;;;;;;;6194486;23;20019;-89
2022/07/27 06:32:08;;;;;;;0.10;0.10;;;;;;;;;;6194281;23;20008;-87
2022/07/27 06:34:34;;;;;;;0.10;0.10;;;;;;;;;;6219159;23;20019;-89
2022/07/27 06:37:00;;;;;;;0.10;0.10;;;;;;;;;;6195274;23;20070;-88
2022/07/27 06:39:26;;;;;;;0.10;0.10;;;;;;;;;;6194469;23;20012;-87
2022/07/27 06:41:52;;;;;;;0.10;0.10;;;;;;;;;;6193658;23;20402;-86
2022/07/27 06:44:18;;;;;;;0.10;0.10;;;;;;;;;;6194126;23;20053;-87
2022/07/27 06:46:44;;;;;;;0.10;0.10;;;;;;;;;;6193931;23;20061;-86
2022/07/27 06:49:10;;;;;;;0.10;0.10;;;;;;;;;;6218803;23;20012;-86
2022/07/27 06:51:36;;;;;;;0.10;0.10;;;;;;;;;;6194188;23;20008;-88
2022/07/27 06:54:02;;;;;;;0.10;0.10;;;;;;;;;;6194417;23;20012;-86
2022/07/27 06:56:28;;;;;;;0.10;0.10;;;;;;;;;;6193900;23;20329;-86
2022/07/27 06:58:54;;;;;;;0.05;0.05;;;;;;;;;;6193932;23;20012;-85
2022/07/27 07:01:20;;;;;;;0.10;0.10;;;;;;;;;;6194012;23;20447;-85
2022/07/27 07:03:46;;;;;;;0.10;0.10;;;;;;;;;;6193923;23;20341;-86
2022/07/27 07:06:12;;;;;;;0.10;0.10;;;;;;;;;;6194226;23;20094;-86
2022/07/27 07:08:38;;;;;;;0.10;0.10;;;;;;;;;;6218742;23;20016;-86
2022/07/27 07:11:03;;;;;;;0.10;0.10;;;;;;;;;;6218791;23;20051;-86
2022/07/27 07:13:30;;;;;;;0.10;0.10;;;;;;;;;;6193722;23;20016;-86
2022/07/27 07:15:55;;;;;;;0.10;0.10;;;;;;;;;;6193487;23;20019;-85
2022/07/27 07:18:21;;;;;;;0.10;0.10;;;;;;;;;;6193496;23;20012;-86
2022/07/27 07:20:47;;;;;;;0.03;0.03;;;;;;;;;;6188317;23;20021;-86
2022/07/27 07:23:13;;;;;;;0.10;0.10;;;;;;;;;;6163577;23;20108;-86
2022/07/27 07:25:39;;;;;;;0.10;0.10;;;;;;;;;;6163417;23;20063;-87
2022/07/27 07:28:06;;;;;;;0.20;0.20;;;;;;;;;;6188320;23;20016;-86
2022/07/27 07:30:31;;;;;;;0.10;0.10;;;;;;;;;;6188378;23;20442;-84
2022/07/27 07:32:57;;;;;;;0.10;0.10;;;;;;;;;;6188217;23;20024;-84
2022/07/27 07:35:23;;;;;;;0.10;0.10;;;;;;;;;;6188434;23;20338;-84
2022/07/27 07:37:49;;;;;;;0.10;0.10;;;;;;;;;;6188280;23;20016;-83
2022/07/27 07:40:15;;;;;;;0.10;0.10;;;;;;;;;;6187852;23;20485;-84
2022/07/27 07:42:52;;;;;;;0.10;0.10;;;;;;;;;;6188187;23;20013;-85
2022/07/27 07:45:18;;;;;;;0.10;0.10;;;;;;;;;;6187897;23;20013;-85
2022/07/27 07:47:44;;;;;;;0.10;0.10;;;;;;;;;;6188217;23;20091;-86
2022/07/27 07:50:10;;;;;;;0.10;0.10;;;;;;;;;;6188097;23;20051;-86
2022/07/27 07:52:36;;;;;;;0.10;0.10;;;;;;;;;;6188109;23;20016;-86
2022/07/27 07:55:02;;;;;;;0.10;0.10;;;;;;;;;;6188292;23;20460;-85
2022/07/27 07:57:28;;;;;;;0.10;0.10;;;;;;;;;;6187972;23;20446;-86
2022/07/27 07:59:54;;;;;;;0.10;0.10;;;;;;;;;;6187822;23;20071;-86
2022/07/27 08:02:20;;;;;;;0.10;0.10;;;;;;;;;;6163320;23;20353;-85
2022/07/27 08:04:46;;;;;;;0.10;0.10;;;;;;;;;;6163137;23;20017;-86
2022/07/27 08:07:12;;;;;;;0.10;0.10;;;;;;;;;;6163132;23;20016;-87
2022/07/27 08:09:38;;;;;;;0.20;0.20;;;;;;;;;;6187875;23;20020;-87
2022/07/27 08:12:05;;;;;;;0.10;0.10;;;;;;;;;;6188088;23;20013;-91
2022/07/27 08:14:31;;;;;;;0.20;0.20;;;;;;;;;;6163201;23;20020;-86
2022/07/27 08:16:57;;;;;;;0.10;0.10;;;;;;;;;;6188101;23;20419;-87
2022/07/27 08:19:23;;;;;;;0.10;0.10;;;;;;;;;;6180616;23;20124;-88
2022/07/27 08:21:49;;;;;;;0.10;0.10;;;;;;;;;;6186555;23;20071;-86
2022/07/27 08:24:15;;;;;;;0.10;0.10;;;;;;;;;;6186665;23;20020;-91
2022/07/27 08:26:41;;;;;;;0.10;0.10;;;;;;;;;;6186763;23;20012;-87
2022/07/27 08:29:07;;;;;;;0.10;0.10;;;;;;;;;;6186612;23;20016;-87
2022/07/27 08:31:33;;;;;;;0.20;0.20;;;;;;;;;;6186896;23;20040;-87
2022/07/27 08:33:59;;;;;;;0.10;0.10;;;;;;;;;;6186683;23;20013;-87
2022/07/27 08:36:27;;;;;;;0.10;0.10;;;;;;;;;;6186560;23;20517;-86
2022/07/27 08:38:52;;;;;;;0.10;0.10;;;;;;;;;;6186570;23;20008;-86
2022/07/27 08:41:18;;;;;;;0.30;0.30;;;;;;;;;;6186779;23;20008;-86
2022/07/27 08:43:44;;;;;;;0.10;0.10;;;;;;;;;;6186529;23;20023;-86
2022/07/27 08:46:11;;;;;;;0.20;0.20;;;;;;;;;;6186583;23;20016;-86
2022/07/27 08:48:38;;;;;;;0.10;0.10;;;;;;;;;;6161718;23;20017;-86
2022/07/27 08:51:06;;;;;;;0.10;0.10;;;;;;;;;;6186571;23;20015;-86
2022/07/27 08:53:32;;;;;;;0.10;0.10;;;;;;;;;;6186409;23;20012;-86
2022/07/27 08:55:58;;;;;;;0.10;0.10;;;;;;;;;;6186412;23;20048;-86
2022/07/27 08:58:24;;;;;;;0.10;0.10;;;;;;;;;;6186594;23;20016;-86
2022/07/27 09:00:50;;;;;;;0.10;0.10;;;;;;;;;;6186497;23;20115;-86
2022/07/27 09:03:16;;;;;;;0.10;0.10;;;;;;;;;;6185695;23;20020;-85
2022/07/27 09:05:46;;;;;;;0.10;0.10;;;;;;;;;;6186345;23;20016;-85
2022/07/27 09:08:15;;;;;;;0.10;0.10;;;;;;;;;;6186358;23;20434;-86
2022/07/27 09:10:41;;;;;;;0.10;0.10;;;;;;;;;;6186366;23;20019;-86
2022/07/27 09:13:17;;;;;;;0.10;0.10;;;;;;;;;;6162045;23;20013;-87
2022/07/27 09:15:47;;;;;;;0.10;0.10;;;;;;;;;;6161788;23;20022;-86
2022/07/27 09:18:21;;;;;;;0.10;0.10;;;;;;;;;;6186075;23;20023;-86
2022/07/27 09:20:50;;;;;;;0.10;0.10;;;;;;;;;;6141236;23;1076757;-87
2022/07/27 09:23:25;;;;;;;0.10;0.10;;;;;;;;;;6162917;23;20048;-86
2022/07/27 09:25:51;;;;;;;0.10;0.10;;;;;;;;;;6187430;23;20017;-87
2022/07/27 09:28:17;;;;;;;0.10;0.10;;;;;;;;;;6162992;23;20076;-86
2022/07/27 09:30:43;;;;;;;0.10;0.10;;;;;;;;;;6187602;23;20071;-86
2022/07/27 09:33:09;;;;;;;0.10;0.10;;;;;;;;;;6188055;23;20012;-86
2022/07/27 09:35:35;;;;;;;0.10;0.10;;;;;;;;;;6187379;23;20024;-86
2022/07/27 09:38:19;;;;;;;0.10;0.10;;;;;;;;;;6187498;23;20024;-87
2022/07/27 09:40:47;;;;;;;0.10;0.10;;;;;;;;;;6187479;23;20016;-88
2022/07/27 09:43:13;;;;;;;0.10;0.10;;;;;;;;;;6187557;23;20016;-87
2022/07/27 09:45:42;;;;;;;0.10;0.10;;;;;;;;;;6187534;23;20270;-86
2022/07/27 09:48:20;;;;;;;0.10;0.10;;;;;;;;;;6187796;23;20012;-86
2022/07/27 09:50:59;;;;;;;0.10;0.10;;;;;;;;;;6162689;23;20088;-86
2022/07/27 09:53:27;;;;;;;0.10;0.10;;;;;;;;;;6187447;23;20389;-86
2022/07/27 09:56:00;;;;;;;0.10;0.10;;;;;;;;;;6162780;23;20048;-86
2022/07/27 09:58:39;;;;;;;0.10;0.10;;;;;;;;;;6187257;23;20047;-85
2022/07/27 10:01:05;;;;;;;0.10;0.10;;;;;;;;;;6186139;23;20020;-87
2022/07/27 10:03:31;;;;;;;0.10;0.10;;;;;;;;;;6187272;23;20099;-87
2022/07/27 10:05:57;;;;;;;0.10;0.10;;;;;;;;;;6162643;23;20013;-89
2022/07/27 10:08:23;;;;;;;0.10;0.10;;;;;;;;;;6186595;23;20307;-87
2022/07/27 10:10:49;;;;;;;0.10;0.10;;;;;;;;;;6162535;23;20015;-87
2022/07/27 10:13:15;;;;;;;0.10;0.10;;;;;;;;;;6162420;23;20395;-86
2022/07/27 10:15:41;;;;;;;0.10;0.10;;;;;;;;;;6188733;23;20012;-87
2022/07/27 10:18:08;;;;;;;0.10;0.10;;;;;;;;;;6189080;23;20088;-87
2022/07/27 10:20:36;;;;;;;0.10;0.10;;;;;;;;;;6188914;23;20023;-87
2022/07/27 10:23:02;;;;;;;0.10;0.10;;;;;;;;;;6164277;23;20023;-89
2022/07/27 10:25:29;;;;;;;0.10;0.10;;;;;;;;;;6188948;23;20501;-89
2022/07/27 10:28:27;;;;;;;0.10;0.10;;;;;;;;;;6188932;23;20012;-89
2022/07/27 10:30:54;;;;;;;0.10;0.10;;;;;;;;;;6100574;23;20063;-88
2022/07/27 10:33:38;;;;;;;0.10;0.10;;;;;;;;;;6163984;23;20044;-88
2022/07/27 10:36:04;;;;;;;0.10;0.10;;;;;;;;;;6163857;23;20020;-87
2022/07/27 10:38:46;;;;;;;0.10;0.10;;;;;;;;;;6188880;23;20013;-88
2022/07/27 10:41:22;;;;;;;0.10;0.10;;;;;;;;;;6189116;23;20036;-88
2022/07/27 10:43:49;;;;;;;0.10;0.10;;;;;;;;;;6163964;23;20017;-87
2022/07/27 10:46:19;;;;;;;0.10;0.10;;;;;;;;;;6163926;23;20091;-91
2022/07/27 10:48:45;;;;;;;0.10;0.10;;;;;;;;;;6164153;23;20016;-88
2022/07/27 10:51:11;;;;;;;0.10;0.10;;;;;;;;;;6189097;23;20319;-88
2022/07/27 10:53:38;;;;;;;0.10;0.10;;;;;;;;;;6163486;23;20047;-88
2022/07/27 10:56:05;;;;;;;0.10;0.10;;;;;;;;;;6163484;23;20338;-89
2022/07/27 10:58:31;;;;;;;0.10;0.10;;;;;;;;;;6163969;23;20521;-88
2022/07/27 11:00:57;;;;;;;0.10;0.10;;;;;;;;;;6164030;23;20051;-88
2022/07/27 11:03:26;;;;;;;0.20;0.20;;;;;;;;;;6188730;23;20017;-88
2022/07/27 11:06:06;;;;;;;0.10;0.10;;;;;;;;;;6188100;23;20334;-88
2022/07/27 11:08:46;;;;;;;0.10;0.10;;;;;;;;;;6188315;23;20009;-94
2022/07/27 11:11:17;;;;;;;0.10;0.10;;;;;;;;;;6216641;23;20012;-92
2022/07/27 11:13:43;;;;;;;0.10;0.10;;;;;;;;;;6164761;23;20044;-92
2022/07/27 11:16:09;;;;;;;0.10;0.10;;;;;;;;;;6164769;23;20017;-91
2022/07/27 11:18:36;;;;;;;0.10;0.10;;;;;;;;;;6163929;23;20017;-91
2022/07/27 11:21:12;;;;;;;0.10;0.10;;;;;;;;;;6164007;23;20024;-90
2022/07/27 11:23:38;;;;;;;0.10;0.10;;;;;;;;;;6163945;23;20044;-89
2022/07/27 11:26:05;;;;;;;0.20;0.20;;;;;;;;;;6188153;23;20102;-90
2022/07/27 11:28:31;;;;;;;0.10;0.10;;;;;;;;;;6188301;23;20008;-90
2022/07/27 11:30:58;;;;;;;0.10;0.10;;;;;;;;;;6188488;23;20012;-90
2022/07/27 11:33:24;;;;;;;0.10;0.10;;;;;;;;;;6188516;23;20020;-91
2022/07/27 11:36:10;;;;;;;0.10;0.10;;;;;;;;;;6188528;23;20016;-88
2022/07/27 11:38:46;;;;;;;0.10;0.10;;;;;;;;;;6163235;23;20024;-89
2022/07/27 11:41:20;;;;;;;0.10;0.10;;;;;;;;;;6188588;23;20056;-87
2022/07/27 11:43:46;;;;;;;0.10;0.10;;;;;;;;;;6188572;23;20017;-87
2022/07/27 11:46:12;;;;;;;0.10;0.10;;;;;;;;;;6188349;23;20019;-88
2022/07/27 11:48:45;;;;;;;0.10;0.10;;;;;;;;;;6188149;23;20017;-88
2022/07/27 11:51:11;;;;;;;0.10;0.10;;;;;;;;;;6188438;23;20013;-87
2022/07/27 11:53:37;;;;;;;0.10;0.10;;;;;;;;;;6188345;23;20076;-91
2022/07/27 11:56:03;;;;;;;0.10;0.10;;;;;;;;;;6188379;23;20334;-91
2022/07/27 11:58:29;;;;;;;0.10;0.10;;;;;;;;;;6163194;23;20442;-87
2022/07/27 12:00:55;;;;;;;0.10;0.10;;;;;;;;;;6188202;23;20087;-90
2022/07/27 12:03:22;;;;;;;0.10;0.10;;;;;;;;;;6188587;23;20017;-88
2022/07/27 12:05:52;;;;;;;0.10;0.10;;;;;;;;;;6163181;23;20098;-88
2022/07/27 12:08:18;;;;;;;0.10;0.10;;;;;;;;;;6163218;23;20012;-88
2022/07/27 12:10:57;;;;;;;0.20;0.20;;;;;;;;;;6163416;23;20015;-87
2022/07/27 12:13:23;;;;;;;0.10;0.10;;;;;;;;;;6188102;23;20059;-87
2022/07/27 12:15:58;;;;;;;0.10;0.10;;;;;;;;;;6188001;23;20091;-87
2022/07/27 12:18:24;;;;;;;0.10;0.10;;;;;;;;;;6187724;23;20438;-88
2022/07/27 12:20:50;;;;;;;0.10;0.10;;;;;;;;;;6187729;23;20076;-88
2022/07/27 12:23:16;;;;;;;0.10;0.10;;;;;;;;;;6163151;23;20410;-88
2022/07/27 12:25:43;;;;;;;0.10;0.10;;;;;;;;;;6188368;23;20023;-88
2022/07/27 12:28:14;;;;;;;0.10;0.10;;;;;;;;;;6163338;23;20083;-88
2022/07/27 12:30:44;;;;;;;0.10;0.10;;;;;;;;;;6187869;23;20468;-88
2022/07/27 12:33:29;;;;;;;0.10;0.10;;;;;;;;;;6163585;23;20012;-89
2022/07/27 12:35:55;;;;;;;0.10;0.10;;;;;;;;;;6187637;23;20331;-87
2022/07/27 12:38:21;;;;;;;0.10;0.10;;;;;;;;;;6187677;23;20059;-87
2022/07/27 12:40:50;;;;;;;0.10;0.10;;;;;;;;;;6187883;23;20469;-88
2022/07/27 12:43:17;;;;;;;0.10;0.10;;;;;;;;;;6187558;23;20504;-86
2022/07/27 12:45:43;;;;;;;0.30;0.30;;;;;;;;;;6187533;23;20016;-87
2022/07/27 12:48:14;;;;;;;0.10;0.10;;;;;;;;;;6187654;23;20031;-89
2022/07/27 12:50:40;;;;;;;0.10;0.10;;;;;;;;;;6162940;23;20013;-88
2022/07/27 12:53:06;;;;;;;0.10;0.10;;;;;;;;;;6162759;23;20008;-88
2022/07/27 12:55:33;;;;;;;0.10;0.10;;;;;;;;;;6187423;23;20016;-89
2022/07/27 12:57:59;;;;;;;0.10;0.10;;;;;;;;;;6187457;23;20020;-89
2022/07/27 13:00:28;;;;;;;0.10;0.10;;;;;;;;;;6162913;23;20016;-90
2022/07/27 13:02:54;;;;;;;0.10;0.10;;;;;;;;;;6163183;23;20092;-89
2022/07/27 13:05:20;;;;;;;0.10;0.10;;;;;;;;;;6162355;23;20013;-91
2022/07/27 13:07:46;;;;;;;0.10;0.10;;;;;;;;;;6162514;23;20438;-87
2022/07/27 13:10:13;;;;;;;0.10;0.10;;;;;;;;;;6187663;23;20496;-87
2022/07/27 13:12:38;;;;;;;0.10;0.10;;;;;;;;;;6187871;23;20063;-87
2022/07/27 13:15:05;;;;;;;0.10;0.10;;;;;;;;;;6162891;23;20099;-87
2022/07/27 13:17:31;;;;;;;0.10;0.10;;;;;;;;;;6187525;23;20016;-87
2022/07/27 13:19:57;;;;;;;0.10;0.10;;;;;;;;;;6187414;23;20331;-87
2022/07/27 13:22:23;;;;;;;0.10;0.10;;;;;;;;;;6162906;23;20027;-87
2022/07/27 13:24:49;;;;;;;0.10;0.10;;;;;;;;;;6187356;23;20023;-86
2022/07/27 13:27:15;;;;;;;0.10;0.10;;;;;;;;;;6162963;23;20143;-87
2022/07/27 13:29:41;;;;;;;0.10;0.10;;;;;;;;;;6187388;23;20009;-87
2022/07/27 13:32:07;;;;;;;0.10;0.10;;;;;;;;;;6187660;23;20092;-86
2022/07/27 13:34:33;;;;;;;0.10;0.10;;;;;;;;;;6162676;23;20024;-86
2022/07/27 13:36:59;;;;;;;0.10;0.10;;;;;;;;;;6163273;23;20406;-87
2022/07/27 13:39:25;;;;;;;0.10;0.10;;;;;;;;;;6187444;23;20017;-87
2022/07/27 13:41:51;;;;;;;0.10;0.10;;;;;;;;;;6187486;23;20016;-86
2022/07/27 13:44:18;;;;;;;0.10;0.10;;;;;;;;;;6162597;23;20088;-87
2022/07/27 13:46:44;;;;;;;0.10;0.10;;;;;;;;;;6187843;23;20013;-86
2022/07/27 13:49:10;;;;;;;0.10;0.10;;;;;;;;;;6162618;23;20009;-86
2022/07/27 13:51:36;;;;;;;0.10;0.10;;;;;;;;;;6164674;23;20071;-86
2022/07/27 13:54:02;;;;;;;0.10;0.10;;;;;;;;;;6189205;23;20008;-87
2022/07/27 13:56:30;;;;;;;0.10;0.10;;;;;;;;;;6189536;23;20504;-87
2022/07/27 13:58:57;;;;;;;0.10;0.10;;;;;;;;;;6164573;23;20067;-86
2022/07/27 14:01:23;;;;;;;0.10;0.10;;;;;;;;;;6189354;23;20017;-86
2022/07/27 14:03:50;;;;;;;0.10;0.10;;;;;;;;;;6189488;23;20008;-86
2022/07/27 14:06:16;;;;;;;0.10;0.10;;;;;;;;;;6189528;23;20115;-86
2022/07/27 14:08:42;;;;;;;0.10;0.10;;;;;;;;;;6189059;23;20008;-86
2022/07/27 14:11:08;;;;;;;0.10;0.10;;;;;;;;;;6164550;23;20047;-87
2022/07/27 14:13:34;;;;;;;0.10;0.10;;;;;;;;;;6189276;23;20013;-88
2022/07/27 14:16:00;;;;;;;0.10;0.10;;;;;;;;;;6164455;23;20103;-86
2022/07/27 14:18:27;;;;;;;0.10;0.10;;;;;;;;;;6188966;23;20023;-87
2022/07/27 14:20:53;;;;;;;0.10;0.10;;;;;;;;;;6219186;23;20102;-86
2022/07/27 14:23:19;;;;;;;0.10;0.10;;;;;;;;;;6219329;23;20455;-87
2022/07/27 14:25:45;;;;;;;0.13;0.13;;;;;;;;;;6219353;23;20023;-87
2022/07/27 14:28:11;;;;;;;0.10;0.10;;;;;;;;;;6219184;23;20305;-86
2022/07/27 14:30:37;;;;;;;0.10;0.10;;;;;;;;;;6194242;23;20016;-87
2022/07/27 14:33:03;;;;;;;0.10;0.10;;;;;;;;;;6219246;23;20075;-86
2022/07/27 14:35:29;;;;;;;0.10;0.10;;;;;;;;;;6219125;23;20016;-87
2022/07/27 14:37:57;;;;;;;0.10;0.10;;;;;;;;;;6219054;22;20020;-87
2022/07/27 14:40:24;;;;;;;0.10;0.10;;;;;;;;;;6194403;23;20013;-87
2022/07/27 14:42:50;;;;;;;0.10;0.10;;;;;;;;;;6218973;23;20098;-89
2022/07/27 14:45:16;;;;;;;0.10;0.10;;;;;;;;;;6219518;23;20087;-88
2022/07/27 14:47:42;;;;;;;0.10;0.10;;;;;;;;;;6218878;22;20039;-88